Terminal Aerodrome Forecast
Issued by NWS Midland/Odessa, TX

Home | Current Version | Previous Version | Text Only | Print | Product List | Glossary On
Versions: 1 2 3 4 5 6 7 8 9 10 11 12 13 14 15 16 17 18 19 20 21 22 23 24 25
882
FTUS44 KMAF 280737 AAB
TAFMAF
TAF AMD
KMAF 280737Z 2808/2906 24007KT P6SM FEW120 SCT250
     FM280900 03020G28KT P6SM BKN035
      TEMPO 2812/2816 BKN015
     FM282000 05014G22KT P6SM SCT250
     FM290300 07010KT P6SM FEW250=

USA.gov is the U.S. government's official web portal to all federal, state and local government web resources and services.